Time;durP1;ratioP1;P1;durP2;ratioP2;P2;SDS_P1;SDS_P2;PMS_P1;PMS_P2;Temp;Humidity;BMP_temperature;BMP_pressure;BME280_temperature;BME280_humidity;BME280_pressure;Samples;Min_cycle;Max_cycle;Signal;HPM_P1;HPM_P2
2023/06/28 00:01:14;;;;;;;8.63;3.60;;;22.10;1.00;;;;;;5058058;28;20180;-82
2023/06/28 00:03:40;;;;;;;10.90;3.40;;;22.00;1.00;;;;;;5058183;28;20208;-81
2023/06/28 00:06:05;;;;;;;11.30;3.63;;;21.90;1.00;;;;;;5055446;28;20226;-81
2023/06/28 00:08:31;;;;;;;9.33;3.60;;;21.80;1.00;;;;;;5049629;28;20269;-82
2023/06/28 00:10:56;;;;;;;6.20;3.60;;;21.80;1.00;;;;;;5057949;28;20180;-80
2023/06/28 00:13:22;;;;;;;9.63;3.83;;;21.60;1.00;;;;;;5057477;28;20267;-81
2023/06/28 00:15:48;;;;;;;9.90;3.87;;;21.60;1.00;;;;;;5057750;28;20173;-82
2023/06/28 00:18:14;;;;;;;6.67;4.00;;;21.60;1.00;;;;;;5058203;28;20455;-82
2023/06/28 00:20:40;;;;;;;9.60;4.60;;;21.50;1.00;;;;;;5057571;28;20639;-83
2023/06/28 00:23:06;;;;;;;14.90;5.80;;;21.50;1.00;;;;;;5056593;28;20169;-80
2023/06/28 00:25:32;;;;;;;15.73;6.00;;;21.50;1.00;;;;;;5056117;28;20518;-81
2023/06/28 00:27:57;;;;;;;13.63;7.20;;;22.00;1.00;;;;;;5056507;28;20484;-82
2023/06/28 00:30:23;;;;;;;15.97;7.37;;;21.60;1.00;;;;;;5058934;28;20195;-82
2023/06/28 00:32:48;;;;;;;14.90;8.10;;;21.70;1.00;;;;;;5058570;28;20242;-81
2023/06/28 00:35:14;;;;;;;19.23;7.87;;;21.70;1.00;;;;;;5057374;28;20497;-84
2023/06/28 00:37:41;;;;;;;12.80;7.83;;;21.70;1.00;;;;;;5057606;28;20211;-81
2023/06/28 00:40:08;;;;;;;15.43;8.00;;;21.70;1.00;;;;;;5057310;28;20196;-81
2023/06/28 00:42:34;;;;;;;12.13;6.20;;;21.70;1.00;;;;;;5057149;28;20427;-82
2023/06/28 00:44:59;;;;;;;13.87;6.20;;;21.70;1.00;;;;;;5055575;28;20461;-81
2023/06/28 00:47:27;;;;;;;15.37;6.73;;;21.70;1.00;;;;;;5056281;28;20340;-82
2023/06/28 00:49:53;;;;;;;11.70;6.30;;;21.80;1.00;;;;;;5056943;28;20500;-81
2023/06/28 00:52:20;;;;;;;11.23;5.50;;;21.70;1.00;;;;;;5055681;28;20431;-83
2023/06/28 00:54:45;;;;;;;11.60;5.47;;;21.80;1.00;;;;;;5056138;28;20451;-82
2023/06/28 00:57:11;;;;;;;8.83;4.60;;;21.80;1.00;;;;;;5055856;28;20474;-81
2023/06/28 00:59:37;;;;;;;14.43;5.17;;;21.70;1.00;;;;;;5057831;28;20673;-81
2023/06/28 01:02:03;;;;;;;10.90;4.77;;;21.80;1.00;;;;;;5055651;28;20173;-82
2023/06/28 01:04:28;;;;;;;12.90;5.13;;;21.70;1.00;;;;;;5055418;28;20196;-82
2023/06/28 01:06:59;;;;;;;7.13;4.30;;;21.60;1.00;;;;;;5055390;28;20191;-82
2023/06/28 01:09:27;;;;;;;9.00;4.97;;;22.00;1.00;;;;;;5055943;28;20180;-82
2023/06/28 01:11:55;;;;;;;9.47;4.87;;;21.30;1.00;;;;;;5054921;28;20450;-81
2023/06/28 01:14:23;;;;;;;8.83;4.20;;;21.30;1.00;;;;;;5054845;28;20956;-82
2023/06/28 01:16:54;;;;;;;11.07;5.60;;;21.30;1.00;;;;;;5055288;28;20435;-82
2023/06/28 01:19:23;;;;;;;12.77;5.90;;;21.20;1.00;;;;;;5055137;28;20801;-82
2023/06/28 01:22:00;;;;;;;13.30;6.50;;;21.10;1.00;;;;;;5054122;28;20870;-82
2023/06/28 01:24:26;;;;;;;11.07;6.30;;;21.00;1.00;;;;;;5054386;28;20821;-81
2023/06/28 01:26:52;;;;;;;14.50;7.20;;;20.90;1.00;;;;;;5053697;28;20430;-82
2023/06/28 01:29:21;;;;;;;15.00;7.40;;;20.90;1.00;;;;;;5053382;28;20188;-82
2023/06/28 01:31:56;;;;;;;18.60;6.90;;;20.90;1.00;;;;;;5053455;28;20177;-83
2023/06/28 01:34:22;;;;;;;15.60;6.50;;;20.80;1.00;;;;;;5052784;28;20450;-82
2023/06/28 01:36:50;;;;;;;12.27;6.50;;;20.70;1.00;;;;;;5052064;28;20462;-81
2023/06/28 01:39:17;;;;;;;13.20;6.67;;;20.60;1.00;;;;;;5045639;28;20423;-82
2023/06/28 01:41:44;;;;;;;16.07;6.83;;;20.50;1.00;;;;;;5053066;28;20489;-82
2023/06/28 01:44:10;;;;;;;13.40;6.67;;;20.60;1.00;;;;;;5053014;28;20541;-80
2023/06/28 01:46:35;;;;;;;13.50;7.00;;;20.60;1.00;;;;;;5053211;28;20481;-82
2023/06/28 01:49:01;;;;;;;13.23;6.40;;;20.50;1.00;;;;;;5054381;28;20180;-81
2023/06/28 01:51:27;;;;;;;11.27;5.67;;;20.70;1.00;;;;;;5052675;28;20200;-82
2023/06/28 01:53:53;;;;;;;9.90;5.77;;;20.60;1.00;;;;;;5053895;28;20208;-83
2023/06/28 01:56:18;;;;;;;12.07;6.30;;;20.50;1.00;;;;;;5055247;28;20180;-82
2023/06/28 01:58:44;;;;;;;11.67;5.73;;;20.50;1.00;;;;;;5056818;28;20287;-81
2023/06/28 02:01:09;;;;;;;10.40;5.50;;;20.60;1.00;;;;;;5053503;28;20215;-81
2023/06/28 02:03:35;;;;;;;16.27;6.00;;;20.40;1.00;;;;;;5052871;28;20180;-82
2023/06/28 02:06:00;;;;;;;14.37;5.37;;;20.50;1.00;;;;;;5053162;28;20206;-82
2023/06/28 02:08:26;;;;;;;10.97;5.17;;;20.50;1.00;;;;;;5055013;28;20215;-81
2023/06/28 02:10:52;;;;;;;9.20;5.67;;;20.60;1.00;;;;;;5054700;28;20184;-82
2023/06/28 02:13:17;;;;;;;7.30;4.70;;;20.30;1.00;;;;;;5054144;28;20180;-82
2023/06/28 02:15:43;;;;;;;12.03;5.27;;;20.20;1.00;;;;;;5053276;28;20212;-82
2023/06/28 02:18:09;;;;;;;10.83;5.10;;;20.20;1.00;;;;;;5054605;28;20235;-82
2023/06/28 02:20:34;;;;;;;8.60;4.73;;;20.20;1.00;;;;;;5055150;28;20188;-81
2023/06/28 02:23:00;;;;;;;9.83;4.90;;;20.20;1.00;;;;;;5054583;28;20614;-82
2023/06/28 02:25:25;;;;;;;12.50;5.47;;;20.20;1.00;;;;;;5046225;28;20217;-83
2023/06/28 02:27:51;;;;;;;13.47;5.80;;;20.20;1.00;;;;;;5054855;28;20208;-82
2023/06/28 02:30:18;;;;;;;9.33;5.70;;;20.10;1.00;;;;;;5054486;28;20223;-81
2023/06/28 02:32:44;;;;;;;11.70;6.00;;;19.90;1.00;;;;;;5045968;28;20212;-82
2023/06/28 02:35:09;;;;;;;14.03;6.27;;;19.90;1.00;;;;;;5053336;28;20447;-81
2023/06/28 02:37:35;;;;;;;17.83;5.53;;;19.90;1.00;;;;;;5054966;28;20279;-81
2023/06/28 02:40:01;;;;;;;10.97;6.17;;;19.80;1.00;;;;;;5055551;28;20183;-82
2023/06/28 02:42:26;;;;;;;7.43;5.10;;;20.10;1.00;;;;;;5054787;28;20342;-82
2023/06/28 02:44:52;;;;;;;10.50;5.00;;;19.90;1.00;;;;;;5082250;22;20512;-71
2023/06/28 02:47:17;;;;;;;8.93;5.10;;;19.90;1.00;;;;;;5064483;28;20264;-74
2023/06/28 02:49:43;;;;;;;10.77;5.30;;;19.90;1.00;;;;;;5057084;28;20184;-75
2023/06/28 02:52:08;;;;;;;10.57;5.10;;;19.90;1.00;;;;;;5067961;28;20713;-74
2023/06/28 02:54:34;;;;;;;11.13;5.63;;;20.00;1.00;;;;;;5055314;28;20206;-74
2023/06/28 02:56:59;;;;;;;9.03;5.20;;;20.00;1.00;;;;;;5063986;28;20280;-74
2023/06/28 02:59:25;;;;;;;7.03;5.10;;;19.90;1.00;;;;;;5052622;28;20325;-76
2023/06/28 03:01:50;;;;;;;9.50;5.67;;;19.90;1.00;;;;;;5065055;28;20184;-74
2023/06/28 03:04:16;;;;;;;8.27;5.10;;;19.90;1.00;;;;;;5063682;28;20278;-75
2023/06/28 03:06:48;;;;;;;12.13;4.80;;;19.90;1.00;;;;;;5071891;28;20546;-76
2023/06/28 03:09:13;;;;;;;8.57;4.93;;;19.90;1.00;;;;;;5063764;28;20189;-75
2023/06/28 03:11:39;;;;;;;10.70;5.53;;;19.90;1.00;;;;;;5058419;28;20477;-74
2023/06/28 03:14:04;;;;;;;9.87;5.63;;;20.00;1.00;;;;;;5056354;28;20187;-73
2023/06/28 03:16:30;;;;;;;9.00;5.30;;;19.90;1.00;;;;;;5062687;28;20179;-73
2023/06/28 03:18:55;;;;;;;8.87;5.10;;;20.00;1.00;;;;;;5066301;28;20212;-74
2023/06/28 03:21:21;;;;;;;11.50;5.57;;;20.00;1.00;;;;;;5052064;28;20299;-74
2023/06/28 03:23:46;;;;;;;8.40;4.60;;;20.00;1.00;;;;;;5067423;28;20728;-77
2023/06/28 03:26:11;;;;;;;10.00;5.07;;;20.00;1.00;;;;;;5058023;28;20195;-74
2023/06/28 03:28:37;;;;;;;9.37;5.20;;;20.00;1.00;;;;;;5068345;28;20185;-74
2023/06/28 03:31:02;;;;;;;9.20;5.10;;;20.00;1.00;;;;;;5058181;28;20642;-77
2023/06/28 03:33:28;;;;;;;8.57;4.97;;;20.00;1.00;;;;;;5060954;28;20267;-73
2023/06/28 03:35:53;;;;;;;8.80;4.97;;;20.00;1.00;;;;;;5051486;28;20254;-74
2023/06/28 03:38:19;;;;;;;11.60;5.67;;;19.90;1.00;;;;;;5059629;28;20294;-74
2023/06/28 03:40:44;;;;;;;8.53;5.10;;;20.00;1.00;;;;;;5059302;28;20173;-74
2023/06/28 03:43:10;;;;;;;9.70;5.33;;;19.90;1.00;;;;;;5059678;28;20693;-74
2023/06/28 03:45:36;;;;;;;6.37;4.70;;;19.90;1.00;;;;;;5049560;28;20440;-75
2023/06/28 03:48:02;;;;;;;10.23;4.97;;;19.90;1.00;;;;;;5051278;28;20191;-75
2023/06/28 03:50:27;;;;;;;8.83;4.93;;;20.00;1.00;;;;;;5058253;28;20431;-76
2023/06/28 03:52:53;;;;;;;10.20;4.60;;;20.10;1.00;;;;;;5050928;28;20188;-74
2023/06/28 03:55:18;;;;;;;12.20;4.40;;;20.20;1.00;;;;;;5059043;28;20742;-73
2023/06/28 03:57:44;;;;;;;6.53;4.57;;;20.20;1.00;;;;;;5051036;28;20197;-76
2023/06/28 04:00:11;;;;;;;7.63;4.60;;;20.20;1.00;;;;;;5051147;28;20177;-74
2023/06/28 04:02:36;;;;;;;8.40;4.50;;;20.20;1.00;;;;;;5067127;28;20179;-74
2023/06/28 04:05:03;;;;;;;11.70;4.90;;;20.30;1.00;;;;;;5057127;28;20449;-74
2023/06/28 04:07:29;;;;;;;7.93;4.97;;;20.30;1.00;;;;;;5068873;28;20219;-74
2023/06/28 04:09:54;;;;;;;9.40;5.80;;;20.30;1.00;;;;;;5057572;28;20457;-74
2023/06/28 04:12:20;;;;;;;10.63;5.60;;;20.20;1.00;;;;;;5066984;28;20212;-73
2023/06/28 04:14:46;;;;;;;11.13;5.33;;;20.10;1.00;;;;;;5054755;28;20203;-74
2023/06/28 04:17:12;;;;;;;6.47;5.00;;;20.10;1.00;;;;;;5054743;28;20467;-73
2023/06/28 04:19:37;;;;;;;12.23;5.53;;;20.20;1.00;;;;;;5050579;28;20188;-75
2023/06/28 04:22:03;;;;;;;9.00;5.37;;;20.20;1.00;;;;;;5050769;28;20224;-74
2023/06/28 04:24:28;;;;;;;7.93;4.20;;;20.10;1.00;;;;;;5066294;28;20231;-74
2023/06/28 04:26:54;;;;;;;10.13;4.90;;;20.10;1.00;;;;;;5068997;28;20176;-75
2023/06/28 04:29:19;;;;;;;7.20;4.40;;;20.00;1.00;;;;;;5068922;28;20329;-75
2023/06/28 04:31:45;;;;;;;11.63;4.80;;;20.10;1.00;;;;;;5061784;28;20222;-75
2023/06/28 04:34:10;;;;;;;6.87;4.60;;;20.20;1.00;;;;;;5062160;28;20192;-75
2023/06/28 04:36:39;;;;;;;8.23;4.90;;;20.20;1.00;;;;;;5061352;28;20188;-75
2023/06/28 04:39:05;;;;;;;9.83;4.90;;;20.20;1.00;;;;;;5062197;28;20218;-75
2023/06/28 04:41:30;;;;;;;8.10;4.60;;;20.10;1.00;;;;;;5069772;28;20433;-75
2023/06/28 04:43:57;;;;;;;6.70;4.80;;;20.20;1.00;;;;;;5060654;28;20184;-77
2023/06/28 04:46:26;;;;;;;11.00;4.70;;;20.20;1.00;;;;;;5060092;28;20678;-75
2023/06/28 04:48:52;;;;;;;9.60;4.80;;;20.30;1.00;;;;;;5065734;28;20431;-75
2023/06/28 04:51:19;;;;;;;7.87;4.80;;;20.20;1.00;;;;;;5058305;28;20424;-74
2023/06/28 04:53:46;;;;;;;8.33;4.63;;;20.10;1.00;;;;;;5058391;28;20762;-75
2023/06/28 04:56:11;;;;;;;11.33;4.70;;;20.10;1.00;;;;;;5058116;28;20439;-75
2023/06/28 04:58:37;;;;;;;6.27;4.30;;;20.10;1.00;;;;;;5057856;28;20462;-76
2023/06/28 05:01:05;;;;;;;9.43;4.60;;;20.20;1.00;;;;;;5049980;28;20720;-75
2023/06/28 05:03:31;;;;;;;8.83;4.50;;;20.30;1.00;;;;;;5058325;28;20484;-77
2023/06/28 05:05:56;;;;;;;8.67;4.73;;;20.30;1.00;;;;;;5056699;28;20447;-75
2023/06/28 05:08:22;;;;;;;7.63;4.20;;;20.30;1.00;;;;;;5056401;28;20180;-74
2023/06/28 05:10:48;;;;;;;9.73;5.63;;;20.30;1.00;;;;;;5057055;28;20264;-75
2023/06/28 05:13:13;;;;;;;8.13;4.87;;;20.30;1.00;;;;;;5050697;28;20279;-75
2023/06/28 05:15:39;;;;;;;7.73;4.70;;;20.30;1.00;;;;;;5057268;28;20675;-74
2023/06/28 05:18:04;;;;;;;8.93;4.60;;;20.40;1.00;;;;;;5063481;28;20203;-75
2023/06/28 05:20:31;;;;;;;20.07;5.60;;;20.40;1.00;;;;;;5055809;28;20636;-76
2023/06/28 05:23:15;;;;;;;8.77;4.90;;;20.50;1.00;;;;;;5054600;28;20203;-75
2023/06/28 05:25:42;;;;;;;7.00;4.90;;;20.50;1.00;;;;;;5050416;28;20438;-75
2023/06/28 05:28:11;;;;;;;7.30;5.10;;;20.60;1.00;;;;;;5057825;28;20500;-75
2023/06/28 05:30:36;;;;;;;8.43;4.70;;;20.60;1.00;;;;;;5057469;28;20939;-75
2023/06/28 05:33:02;;;;;;;8.33;4.37;;;20.70;1.00;;;;;;5049262;28;20426;-75
2023/06/28 05:35:32;;;;;;;8.67;5.33;;;20.70;1.00;;;;;;5049318;28;20686;-74
2023/06/28 05:37:59;;;;;;;10.30;4.90;;;20.80;1.00;;;;;;5057626;28;20455;-73
2023/06/28 05:40:26;;;;;;;8.77;4.60;;;20.80;1.00;;;;;;5057639;28;20480;-73
2023/06/28 05:42:53;;;;;;;13.80;4.47;;;20.80;1.00;;;;;;5061572;28;20418;-77
2023/06/28 05:45:22;;;;;;;8.20;4.67;;;20.80;1.00;;;;;;5050237;28;20977;-74
2023/06/28 05:47:49;;;;;;;8.43;4.53;;;20.80;1.00;;;;;;5060710;28;20475;-75
2023/06/28 05:50:16;;;;;;;6.07;4.70;;;20.80;1.00;;;;;;5061295;28;20425;-75
2023/06/28 05:52:44;;;;;;;7.63;3.73;;;20.90;1.00;;;;;;5060575;28;20954;-76
2023/06/28 05:55:10;;;;;;;10.37;5.30;;;21.00;1.00;;;;;;5063024;28;20442;-75
2023/06/28 05:57:37;;;;;;;11.00;5.00;;;21.10;1.00;;;;;;5058778;28;20984;-75
2023/06/28 06:00:04;;;;;;;8.27;4.27;;;21.10;1.00;;;;;;5055937;28;20415;-75
2023/06/28 06:02:29;;;;;;;6.30;4.47;;;21.20;1.00;;;;;;5058379;28;20415;-76
2023/06/28 06:04:55;;;;;;;8.43;4.57;;;21.40;1.00;;;;;;5056817;28;20956;-75
2023/06/28 06:07:21;;;;;;;11.37;4.60;;;21.30;1.00;;;;;;5056900;28;20237;-75
2023/06/28 06:09:46;;;;;;;10.53;4.07;;;21.40;1.00;;;;;;5049575;28;20200;-75
2023/06/28 06:12:11;;;;;;;12.97;4.50;;;21.40;1.00;;;;;;5048911;28;20209;-75
2023/06/28 06:14:37;;;;;;;8.50;4.23;;;21.40;1.00;;;;;;5048768;28;20212;-75
2023/06/28 06:17:03;;;;;;;6.47;3.93;;;21.60;1.00;;;;;;5049131;28;20180;-74
2023/06/28 06:19:28;;;;;;;14.00;3.97;;;21.70;1.00;;;;;;5057679;28;20311;-75
2023/06/28 06:21:54;;;;;;;8.60;4.33;;;21.60;1.00;;;;;;5065094;28;20267;-75
2023/06/28 06:24:19;;;;;;;10.10;4.27;;;21.60;1.00;;;;;;5057996;28;20563;-76
2023/06/28 06:26:44;;;;;;;12.40;4.67;;;21.80;1.00;;;;;;5060578;28;20181;-75
2023/06/28 06:29:10;;;;;;;7.53;4.07;;;21.80;1.00;;;;;;5061213;28;20283;-74
2023/06/28 06:31:35;;;;;;;6.63;3.90;;;21.80;1.00;;;;;;5062679;28;20222;-77
2023/06/28 06:34:01;;;;;;;6.73;3.83;;;21.90;1.00;;;;;;5059720;28;20188;-75
2023/06/28 06:36:29;;;;;;;6.23;3.87;;;21.90;1.00;;;;;;5052929;28;20235;-74
2023/06/28 06:38:59;;;;;;;6.80;3.83;;;22.10;1.00;;;;;;5055875;28;20199;-74
2023/06/28 06:41:25;;;;;;;7.73;4.00;;;22.20;1.00;;;;;;5056485;28;20475;-74
2023/06/28 06:43:50;;;;;;;8.30;3.70;;;22.30;1.00;;;;;;5064642;28;20426;-75
2023/06/28 06:46:20;;;;;;;11.43;3.50;;;22.40;1.00;;;;;;5057513;28;20212;-74
2023/06/28 06:48:46;;;;;;;9.00;4.30;;;22.40;1.00;;;;;;5060943;28;20646;-74
2023/06/28 06:51:11;;;;;;;6.87;3.90;;;22.30;1.00;;;;;;5052754;28;20427;-74
2023/06/28 06:53:37;;;;;;;7.90;4.10;;;22.40;1.00;;;;;;5060369;28;20433;-74
2023/06/28 06:56:03;;;;;;;11.27;3.80;;;22.50;1.00;;;;;;5051066;28;20207;-76
2023/06/28 06:58:29;;;;;;;5.60;3.70;;;22.60;1.00;;;;;;5068678;28;20239;-73
2023/06/28 07:00:54;;;;;;;15.20;4.30;;;22.70;1.00;;;;;;5055967;28;20514;-74
2023/06/28 07:03:20;;;;;;;6.37;4.00;;;22.80;1.00;;;;;;5064055;28;20183;-76
2023/06/28 07:05:45;;;;;;;10.90;4.20;;;22.90;1.00;;;;;;5068240;28;20682;-75
2023/06/28 07:08:10;;;;;;;8.93;3.90;;;22.90;1.00;;;;;;5052382;28;20184;-74
2023/06/28 07:10:36;;;;;;;7.40;3.73;;;23.00;1.00;;;;;;5060584;28;20286;-75
2023/06/28 07:13:02;;;;;;;5.93;3.57;;;23.10;1.00;;;;;;5059020;28;20187;-77
2023/06/28 07:15:27;;;;;;;8.73;4.17;;;23.20;1.00;;;;;;5056997;28;20281;-74
2023/06/28 07:17:53;;;;;;;6.90;4.00;;;23.50;1.00;;;;;;5051662;28;20266;-74
2023/06/28 07:20:20;;;;;;;5.90;3.47;;;23.60;1.00;;;;;;5060519;28;20176;-74
2023/06/28 07:22:45;;;;;;;6.57;3.50;;;23.60;1.00;;;;;;5059803;28;20426;-74
2023/06/28 07:25:12;;;;;;;5.77;3.70;;;23.50;1.00;;;;;;5051967;28;20442;-75
2023/06/28 07:27:38;;;;;;;6.87;3.70;;;23.50;1.00;;;;;;5069334;28;20274;-75
2023/06/28 07:30:06;;;;;;;8.60;3.73;;;23.40;1.00;;;;;;5067386;28;20427;-74
2023/06/28 07:32:31;;;;;;;8.03;3.40;;;23.30;1.00;;;;;;5057620;28;20188;-75
2023/06/28 07:34:57;;;;;;;9.00;3.57;;;23.40;1.00;;;;;;5059528;28;20439;-74
2023/06/28 07:37:22;;;;;;;5.87;3.50;;;23.60;1.00;;;;;;5050724;28;20678;-75
2023/06/28 07:39:48;;;;;;;6.43;3.60;;;23.70;1.00;;;;;;5062195;28;20203;-75
2023/06/28 07:42:14;;;;;;;13.13;4.20;;;23.80;1.00;;;;;;5057434;28;20233;-75
2023/06/28 07:44:39;;;;;;;7.23;3.60;;;23.90;1.00;;;;;;5064101;28;20272;-76
2023/06/28 07:47:05;;;;;;;10.53;4.03;;;23.90;1.00;;;;;;5061750;28;20255;-75
2023/06/28 07:49:31;;;;;;;6.03;3.30;;;23.70;1.00;;;;;;5054838;28;20176;-74
2023/06/28 07:51:58;;;;;;;7.07;3.67;;;23.50;1.00;;;;;;5051409;28;20555;-76
2023/06/28 07:54:23;;;;;;;10.63;3.60;;;23.50;1.00;;;;;;5051991;28;20197;-75
2023/06/28 07:56:49;;;;;;;7.53;3.90;;;23.70;1.00;;;;;;5070420;28;20418;-76
2023/06/28 07:59:15;;;;;;;7.80;3.60;;;23.80;1.00;;;;;;5057329;28;20691;-74
2023/06/28 08:01:40;;;;;;;7.10;3.40;;;24.00;1.00;;;;;;5060429;28;20181;-76
2023/06/28 08:04:06;;;;;;;7.13;4.10;;;24.50;1.00;;;;;;5058370;28;20536;-75
2023/06/28 08:06:31;;;;;;;6.43;3.63;;;24.50;1.00;;;;;;5050005;28;20188;-75
2023/06/28 08:08:57;;;;;;;9.87;3.70;;;24.70;1.00;;;;;;5054666;28;20180;-74
2023/06/28 08:11:22;;;;;;;8.43;3.53;;;24.70;1.00;;;;;;5061469;28;20192;-76
2023/06/28 08:13:50;;;;;;;7.80;4.00;;;25.00;1.00;;;;;;5064418;28;20181;-74
2023/06/28 08:16:16;;;;;;;10.40;3.63;;;25.00;1.00;;;;;;5059220;28;20180;-74
2023/06/28 08:18:42;;;;;;;6.27;3.43;;;25.10;1.00;;;;;;5059085;28;21041;-74
2023/06/28 08:21:07;;;;;;;8.30;3.50;;;25.20;1.00;;;;;;5064112;28;20300;-75
2023/06/28 08:23:33;;;;;;;6.37;3.53;;;25.40;1.00;;;;;;5062140;28;20173;-75
2023/06/28 08:25:58;;;;;;;15.70;3.70;;;25.50;1.00;;;;;;5062614;28;20203;-74
2023/06/28 08:28:24;;;;;;;8.37;3.57;;;25.80;1.00;;;;;;5062502;28;20635;-75
2023/06/28 08:30:49;;;;;;;6.97;4.27;;;26.10;1.00;;;;;;5060857;28;20246;-76
2023/06/28 08:33:15;;;;;;;5.67;3.50;;;26.20;1.00;;;;;;5051966;28;20275;-74
2023/06/28 08:35:40;;;;;;;5.30;3.47;;;26.40;1.00;;;;;;5058700;28;20220;-74
2023/06/28 08:38:06;;;;;;;11.00;4.40;;;26.40;1.00;;;;;;5049414;28;20196;-76
2023/06/28 08:40:32;;;;;;;11.43;3.80;;;26.80;1.00;;;;;;5059075;28;20191;-75
2023/06/28 08:43:03;;;;;;;9.87;3.63;;;27.00;1.00;;;;;;5069904;28;20183;-73
2023/06/28 08:45:33;;;;;;;9.90;3.90;;;27.30;1.00;;;;;;5115318;22;20227;-75
2023/06/28 08:47:59;;;;;;;8.23;4.00;;;27.80;1.00;;;;;;5068262;28;20434;-75
2023/06/28 08:50:25;;;;;;;7.47;3.53;;;27.90;1.00;;;;;;5063198;28;20184;-75
2023/06/28 08:52:51;;;;;;;6.53;3.83;;;27.90;1.00;;;;;;5058933;28;20594;-75
2023/06/28 08:55:20;;;;;;;9.40;3.43;;;28.20;1.00;;;;;;5063612;28;20210;-75
2023/06/28 08:57:46;;;;;;;7.80;3.47;;;28.30;1.00;;;;;;5069339;28;20188;-76
2023/06/28 09:00:13;;;;;;;6.53;3.60;;;28.50;1.00;;;;;;5070014;28;20180;-75
2023/06/28 09:02:41;;;;;;;6.70;3.43;;;28.60;1.00;;;;;;5060998;28;20189;-75
2023/06/28 09:05:08;;;;;;;9.20;3.40;;;28.60;1.00;;;;;;5069795;28;20674;-75
2023/06/28 09:07:34;;;;;;;6.53;3.67;;;28.70;1.00;;;;;;5061311;28;20346;-75
2023/06/28 09:10:00;;;;;;;5.73;3.70;;;28.90;1.00;;;;;;5058079;28;20654;-75
2023/06/28 09:12:26;;;;;;;7.37;3.53;;;28.90;1.00;;;;;;5064759;28;20230;-75
2023/06/28 09:14:52;;;;;;;7.47;3.47;;;28.60;1.00;;;;;;5060871;28;20296;-75
2023/06/28 09:17:18;;;;;;;6.10;3.70;;;28.40;1.00;;;;;;5067723;28;20769;-75
2023/06/28 09:19:44;;;;;;;5.40;3.70;;;28.00;1.00;;;;;;5069224;28;20259;-75
2023/06/28 09:22:10;;;;;;;7.60;3.23;;;28.70;1.00;;;;;;5069311;28;20268;-75
2023/06/28 09:24:36;;;;;;;6.60;3.40;;;29.50;1.00;;;;;;5060014;28;20194;-75
2023/06/28 09:27:04;;;;;;;7.30;3.38;;;30.10;1.00;;;;;;5067971;28;20181;-75
2023/06/28 09:29:29;;;;;;;8.07;3.05;;;30.00;1.00;;;;;;5061269;28;20199;-75
2023/06/28 09:31:55;;;;;;;6.72;3.08;;;30.20;1.00;;;;;;5064044;28;20222;-75
2023/06/28 09:34:25;;;;;;;6.53;3.20;;;30.00;1.00;;;;;;5063687;28;20191;-76
2023/06/28 09:36:55;;;;;;;6.40;3.30;;;30.10;1.00;;;;;;5068864;28;20203;-75
2023/06/28 09:39:21;;;;;;;6.40;2.97;;;29.30;1.00;;;;;;5069598;28;20403;-75
2023/06/28 09:41:48;;;;;;;5.03;2.90;;;29.30;1.00;;;;;;5068644;28;20180;-75
2023/06/28 09:44:15;;;;;;;8.57;3.55;;;30.30;1.00;;;;;;5066429;28;20171;-75
2023/06/28 09:46:45;;;;;;;5.00;2.63;;;30.30;1.00;;;;;;5067208;28;20278;-75
2023/06/28 09:49:22;;;;;;;7.30;2.90;;;31.00;1.00;;;;;;5059691;28;20179;-75
2023/06/28 09:52:06;;;;;;;11.90;3.45;;;31.20;1.00;;;;;;5068801;28;20179;-75
2023/06/28 09:54:44;;;;;;;7.25;3.03;;;31.20;1.00;;;;;;5060852;28;20871;-75
2023/06/28 09:57:10;;;;;;;7.90;3.40;;;31.30;1.00;;;;;;5053194;28;20183;-75
2023/06/28 09:59:36;;;;;;;11.93;3.20;;;31.90;1.00;;;;;;5063594;28;20194;-75
2023/06/28 10:02:05;;;;;;;6.43;3.25;;;31.60;1.00;;;;;;5064390;28;20191;-76
2023/06/28 10:04:34;;;;;;;6.22;3.00;;;32.10;1.00;;;;;;5071897;28;20669;-75
2023/06/28 10:07:01;;;;;;;7.47;2.75;;;32.20;1.00;;;;;;5072611;28;20195;-75
2023/06/28 10:09:36;;;;;;;5.63;3.25;;;32.60;1.00;;;;;;5073281;28;20179;-75
2023/06/28 10:12:13;;;;;;;9.82;2.70;;;32.90;1.00;;;;;;5072154;28;20179;-75
2023/06/28 10:14:44;;;;;;;9.07;3.38;;;32.80;1.00;;;;;;5066678;28;20199;-75
2023/06/28 10:17:11;;;;;;;6.35;2.95;;;32.70;1.00;;;;;;5061074;28;20180;-75
2023/06/28 10:19:37;;;;;;;9.38;3.40;;;32.80;1.00;;;;;;5069311;28;20175;-75
2023/06/28 10:22:04;;;;;;;7.25;3.20;;;32.60;1.00;;;;;;5068999;28;20554;-75
2023/06/28 10:24:35;;;;;;;7.53;3.33;;;32.70;1.00;;;;;;5060989;28;20172;-76
2023/06/28 10:27:01;;;;;;;5.85;3.00;;;32.70;1.00;;;;;;5071473;28;20666;-75
2023/06/28 10:29:28;;;;;;;7.43;3.22;;;32.70;1.00;;;;;;5072842;28;20551;-76
2023/06/28 10:31:55;;;;;;;6.90;2.95;;;32.50;1.00;;;;;;5070451;28;20506;-75
2023/06/28 10:34:22;;;;;;;8.35;2.85;;;32.40;1.00;;;;;;5071359;28;20642;-75
2023/06/28 10:36:47;;;;;;;6.00;3.00;;;32.40;1.00;;;;;;5062235;28;20183;-75
2023/06/28 10:39:15;;;;;;;5.47;2.88;;;32.20;1.00;;;;;;5073051;28;20257;-75
2023/06/28 10:41:41;;;;;;;6.78;3.00;;;32.30;1.00;;;;;;5072209;28;20541;-75
2023/06/28 10:44:07;;;;;;;10.52;2.80;;;32.50;1.00;;;;;;5053046;28;20215;-75
2023/06/28 10:46:33;;;;;;;5.32;2.80;;;32.90;1.00;;;;;;5067406;28;20650;-75
2023/06/28 10:48:59;;;;;;;9.75;3.30;;;34.10;1.00;;;;;;5069718;28;20611;-75
2023/06/28 10:51:30;;;;;;;8.18;2.90;;;35.20;1.00;;;;;;5064873;28;20187;-76
2023/06/28 10:54:13;;;;;;;6.68;2.80;;;35.20;1.00;;;;;;5071972;28;20176;-75
2023/06/28 10:57:07;;;;;;;8.15;2.97;;;35.10;1.00;;;;;;5063917;28;20192;-76
2023/06/28 10:59:36;;;;;;;7.88;3.00;;;34.90;1.00;;;;;;5063719;28;20275;-76
2023/06/28 11:02:02;;;;;;;5.95;3.30;;;34.80;1.00;;;;;;5068036;28;20222;-75
2023/06/28 11:04:27;;;;;;;10.25;3.10;;;34.90;1.00;;;;;;5060532;28;20212;-76
2023/06/28 11:07:16;;;;;;;9.38;2.75;;;35.00;1.00;;;;;;5069516;28;20181;-75
2023/06/28 11:10:16;;;;;;;5.50;2.88;;;35.10;1.00;;;;;;5070306;28;20188;-76
2023/06/28 11:12:44;;;;;;;5.85;2.92;;;35.10;1.00;;;;;;5059968;28;20180;-76
2023/06/28 11:15:14;;;;;;;5.38;2.72;;;35.20;1.00;;;;;;5069442;28;20200;-76
2023/06/28 11:17:39;;;;;;;7.47;3.00;;;35.10;1.00;;;;;;5055696;28;20749;-75
2023/06/28 11:20:07;;;;;;;4.75;2.72;;;35.20;1.00;;;;;;5062874;28;20313;-76
2023/06/28 11:22:49;;;;;;;7.55;2.90;;;35.50;1.00;;;;;;5071222;28;20315;-76
2023/06/28 11:25:15;;;;;;;6.57;3.10;;;36.10;1.00;;;;;;5067499;28;20203;-76
2023/06/28 11:27:40;;;;;;;7.35;3.05;;;36.80;1.00;;;;;;5059972;28;20208;-76
2023/06/28 11:30:08;;;;;;;5.13;2.40;;;37.80;1.00;;;;;;5059728;28;20696;-76
2023/06/28 11:32:36;;;;;;;5.28;2.67;;;38.10;1.00;;;;;;5064964;28;20195;-76
2023/06/28 11:35:03;;;;;;;6.63;2.90;;;37.40;1.00;;;;;;5062953;28;20214;-76
2023/06/28 11:37:30;;;;;;;6.45;2.88;;;37.60;1.00;;;;;;5070984;28;20210;-76
2023/06/28 11:39:58;;;;;;;9.77;2.92;;;37.40;1.00;;;;;;5071110;28;20271;-76
2023/06/28 11:42:23;;;;;;;15.80;3.17;;;37.30;1.00;;;;;;5069867;28;20180;-76
2023/06/28 11:44:50;;;;;;;12.18;3.40;;;37.10;1.00;;;;;;5064654;28;20208;-76
2023/06/28 11:47:17;;;;;;;10.77;3.42;;;37.30;1.00;;;;;;5063627;28;20554;-76
2023/06/28 11:49:45;;;;;;;7.63;3.05;;;38.30;1.00;;;;;;5062853;28;20190;-76
2023/06/28 11:52:11;;;;;;;5.50;2.88;;;38.70;1.00;;;;;;5062700;28;20713;-76
2023/06/28 11:54:36;;;;;;;7.25;2.63;;;37.90;1.00;;;;;;5061535;28;20210;-76
2023/06/28 11:57:02;;;;;;;5.05;2.70;;;36.70;1.00;;;;;;5070713;28;20552;-76
2023/06/28 11:59:30;;;;;;;6.75;3.05;;;37.10;1.00;;;;;;5061597;28;20593;-75
2023/06/28 12:02:07;;;;;;;5.32;3.05;;;37.20;1.00;;;;;;5059352;28;20263;-76
2023/06/28 12:04:34;;;;;;;7.80;3.00;;;37.60;1.00;;;;;;5065700;28;20223;-76
2023/06/28 12:07:07;;;;;;;11.00;3.60;;;37.60;1.00;;;;;;5053790;28;20181;-76
2023/06/28 12:09:35;;;;;;;7.70;3.00;;;37.00;1.00;;;;;;5063045;28;20551;-76
2023/06/28 12:12:07;;;;;;;7.07;3.20;;;35.80;1.00;;;;;;5060094;28;20875;-76
2023/06/28 12:14:44;;;;;;;7.45;3.20;;;34.60;1.00;;;;;;5056158;28;20576;-75
2023/06/28 12:17:10;;;;;;;6.43;2.97;;;33.80;1.00;;;;;;5060450;28;20184;-75
2023/06/28 12:19:36;;;;;;;7.55;2.90;;;33.20;1.00;;;;;;5070753;28;20229;-75
2023/06/28 12:22:05;;;;;;;8.93;3.20;;;33.60;1.00;;;;;;5051533;28;20230;-75
2023/06/28 12:24:34;;;;;;;5.47;3.10;;;34.40;1.00;;;;;;5062245;28;20203;-75
2023/06/28 12:27:01;;;;;;;6.68;3.30;;;34.40;1.00;;;;;;5069926;28;20270;-76
2023/06/28 12:29:30;;;;;;;6.68;3.08;;;34.50;1.00;;;;;;5070430;28;20257;-76
2023/06/28 12:32:02;;;;;;;11.13;3.38;;;34.10;1.00;;;;;;5068146;28;20279;-75
2023/06/28 12:34:31;;;;;;;11.48;3.53;;;33.10;1.00;;;;;;5070482;28;20674;-75
2023/06/28 12:36:59;;;;;;;5.75;2.92;;;33.10;1.00;;;;;;5061474;28;20246;-76
2023/06/28 12:39:32;;;;;;;8.32;3.25;;;33.10;1.00;;;;;;5065279;28;20230;-75
2023/06/28 12:42:08;;;;;;;5.35;2.80;;;32.70;1.00;;;;;;5058892;28;20259;-75
2023/06/28 12:44:56;;;;;;;6.18;3.13;;;32.50;1.00;;;;;;5063849;28;20235;-75
2023/06/28 12:47:24;;;;;;;9.73;2.95;;;32.50;1.00;;;;;;5075086;28;20193;-75
2023/06/28 12:49:53;;;;;;;5.95;3.00;;;32.30;1.00;;;;;;5058118;28;20182;-75
2023/06/28 12:52:21;;;;;;;5.05;2.90;;;32.40;1.00;;;;;;5068303;28;20542;-75